Time;durP1;ratioP1;P1;durP2;ratioP2;P2;SDS_P1;SDS_P2;PMS_P1;PMS_P2;Temp;Humidity;BMP_temperature;BMP_pressure;BME280_temperature;BME280_humidity;BME280_pressure;Samples;Min_cycle;Max_cycle;Signal;HPM_P1;HPM_P2
2021/11/07 00:04:08;;;;;;;59.85;30.85;;;;;;;-0.17;70.14;97931.02;1843498;77;25885;-84
2021/11/07 00:06:33;;;;;;;53.42;28.67;;;;;;;-0.15;70.12;97933.06;1837843;76;26106;-81
2021/11/07 00:09:10;;;;;;;58.02;28.98;;;;;;;-0.17;70.13;97919.92;1826527;77;25749;-82
2021/11/07 00:11:38;;;;;;;52.50;26.25;;;;;;;-0.18;70.18;97908.11;1808106;77;25724;-81
2021/11/07 00:14:07;;;;;;;56.15;29.05;;;;;;;-0.19;70.31;97898.47;1807360;77;27450;-81
2021/11/07 00:16:35;;;;;;;58.50;30.45;;;;;;;-0.22;70.44;97891.61;1829431;77;25217;-81
2021/11/07 00:22:23;;;;;;;52.73;28.75;;;;;;;-0.27;70.61;97866.46;1830887;77;26531;-81
2021/11/07 00:24:13;;;;;;;51.63;27.25;;;;;;;-0.26;70.72;97863.67;1822333;77;25630;-80
2021/11/07 00:26:50;;;;;;;50.40;27.95;;;;;;;-0.25;70.79;97860.05;1840176;77;27425;-82
2021/11/07 00:29:19;;;;;;;49.85;24.82;;;;;;;-0.22;70.94;97871.70;1823241;77;25857;-81
2021/11/07 00:37:10;;;;;;;67.75;31.97;;;;;;;-0.23;70.79;97855.43;1826729;77;25269;-81
2021/11/07 00:40:06;;;;;;;60.73;29.67;;;;;;;-0.22;70.78;97854.95;1818082;77;28338;-81
2021/11/07 00:45:04;;;;;;;47.43;24.95;;;;;;;-0.26;70.78;97853.55;1743028;77;25310;-81
2021/11/07 00:47:33;;;;;;;48.42;24.67;;;;;;;-0.27;70.92;97855.84;1837987;77;25784;-81
2021/11/07 00:50:00;;;;;;;47.75;24.85;;;;;;;-0.28;70.94;97859.47;1839945;77;25846;-81
2021/11/07 00:52:33;;;;;;;47.58;24.52;;;;;;;-0.29;70.96;97850.67;1840944;77;28174;-80
2021/11/07 00:55:02;;;;;;;41.00;23.38;;;;;;;-0.25;71.02;97851.25;1840312;77;25620;-82
2021/11/07 00:57:27;;;;;;;37.90;20.88;;;;;;;-0.23;71.07;97845.30;1824948;77;25744;-82
2021/11/07 00:59:56;;;;;;;35.48;19.30;;;;;;;-0.20;71.07;97845.05;1839552;77;26422;-81
2021/11/07 01:02:35;;;;;;;38.75;19.40;;;;;;;-0.22;71.27;97835.89;1839377;77;25719;-82
2021/11/07 01:05:07;;;;;;;39.70;20.20;;;;;;;-0.28;71.65;97828.48;1841136;77;28233;-82
2021/11/07 01:07:33;;;;;;;36.48;20.27;;;;;;;-0.31;71.58;97831.88;1840112;77;25853;-82
2021/11/07 01:10:00;;;;;;;41.83;21.95;;;;;;;-0.29;71.70;97832.10;1840576;77;25665;-82
2021/11/07 01:12:29;;;;;;;39.78;21.35;;;;;;;-0.24;71.73;97835.70;1840180;77;25672;-82
2021/11/07 01:14:58;;;;;;;35.30;19.60;;;;;;;-0.23;71.67;97822.27;1829493;77;25752;-82
2021/11/07 01:17:25;;;;;;;39.13;19.60;;;;;;;-0.21;71.66;97807.06;1812844;77;28439;-82
2021/11/07 01:19:54;;;;;;;35.15;19.95;;;;;;;-0.19;71.68;97798.48;1842429;77;25881;-82
2021/11/07 01:22:32;;;;;;;32.48;18.10;;;;;;;-0.15;71.66;97793.75;1811348;77;25723;-82
2021/11/07 01:24:59;;;;;;;29.20;16.60;;;;;;;-0.16;71.73;97806.67;1819162;77;25735;-81
2021/11/07 01:27:30;;;;;;;31.23;17.00;;;;;;;-0.21;71.92;97815.50;1810802;77;25820;-82
2021/11/07 01:29:55;;;;;;;30.77;16.15;;;;;;;-0.18;72.01;97810.78;1830934;77;28226;-81
2021/11/07 01:32:23;;;;;;;31.37;17.55;;;;;;;-0.14;72.00;97784.83;1809756;77;25278;-81
2021/11/07 01:37:20;;;;;;;34.83;18.92;;;;;;;-0.13;71.84;97780.71;1837785;77;25704;-81
2021/11/07 01:39:59;;;;;;;32.08;17.20;;;;;;;-0.13;71.80;97772.75;1843822;77;25703;-81
2021/11/07 01:42:42;;;;;;;28.73;15.38;;;;;;;-0.10;71.83;97774.27;1842497;76;27552;-81
2021/11/07 01:45:22;;;;;;;26.45;14.45;;;;;;;-0.07;71.97;97774.00;1810853;77;26075;-81
2021/11/07 01:47:48;;;;;;;26.87;14.85;;;;;;;-0.06;72.06;97773.03;1832656;77;25659;-81
2021/11/07 01:50:16;;;;;;;24.05;12.70;;;;;;;-0.04;72.07;97763.97;1829513;77;25878;-81
2021/11/07 01:52:43;;;;;;;22.82;12.78;;;;;;;-0.01;72.04;97764.19;1822708;77;25725;-81
2021/11/07 01:55:19;;;;;;;23.95;14.15;;;;;;;-0.01;72.07;97752.24;1843614;77;27371;-81
2021/11/07 01:57:49;;;;;;;25.60;13.83;;;;;;;0.01;72.04;97739.65;1826750;77;25651;-82
2021/11/07 02:00:20;;;;;;;28.60;15.13;;;;;;;0.02;72.18;97731.20;1829962;77;25843;-81
2021/11/07 02:02:48;;;;;;;37.75;18.35;;;;;;;0.04;72.19;97734.56;1844384;77;25718;-81
2021/11/07 02:05:14;;;;;;;38.75;18.40;;;;;;;0.04;72.16;97723.45;1844289;77;25655;-82
2021/11/07 02:07:41;;;;;;;58.25;27.58;;;;;;;0.04;72.16;97727.92;1823082;77;28229;-82
2021/11/07 02:10:13;;;;;;;59.33;29.98;;;;;;;0.06;72.15;97734.78;1808815;77;26476;-82
2021/11/07 02:12:40;;;;;;;47.90;23.65;;;;;;;0.06;72.14;97734.78;1844457;77;25720;-82
2021/11/07 02:15:15;;;;;;;29.60;15.38;;;;;;;0.06;72.24;97737.43;1844330;77;26093;-82
2021/11/07 02:17:43;;;;;;;29.85;15.98;;;;;;;0.06;72.26;97744.06;1843908;77;25795;-82
2021/11/07 02:20:13;;;;;;;28.30;15.45;;;;;;;0.07;72.33;97742.25;1844157;76;27426;-81
2021/11/07 02:22:42;;;;;;;31.33;17.05;;;;;;;0.08;72.35;97741.28;1815943;77;25790;-81
2021/11/07 02:25:09;;;;;;;33.98;17.32;;;;;;;0.11;72.30;97729.06;1811467;77;25759;-82
2021/11/07 02:27:36;;;;;;;32.25;15.28;;;;;;;0.10;72.29;97716.77;1811545;77;25823;-81
2021/11/07 02:30:06;;;;;;;26.90;14.40;;;;;;;0.11;72.31;97719.29;1813971;77;25640;-82
2021/11/07 02:32:33;;;;;;;27.87;14.68;;;;;;;0.12;72.39;97716.95;1821078;77;28151;-81
2021/11/07 02:35:00;;;;;;;51.45;23.27;;;;;;;0.10;72.44;97706.99;1819689;77;26231;-81
2021/11/07 02:37:27;;;;;;;103.40;41.55;;;;;;;0.09;72.42;97715.93;1833087;77;25647;-81
2021/11/07 02:39:54;;;;;;;98.62;41.00;;;;;;;0.11;72.34;97712.66;1812640;77;26472;-82
2021/11/07 02:42:20;;;;;;;85.22;35.23;;;;;;;0.12;72.35;97708.99;1830115;77;25767;-82
2021/11/07 02:44:47;;;;;;;80.00;35.50;;;;;;;0.12;72.37;97706.34;1844534;77;27447;-81
2021/11/07 02:47:16;;;;;;;70.52;31.85;;;;;;;0.12;72.39;97705.01;1844469;77;25587;-82
2021/11/07 02:49:43;;;;;;;52.50;24.65;;;;;;;0.14;72.38;97700.89;1844261;77;25767;-82
2021/11/07 02:52:13;;;;;;;49.75;20.43;;;;;;;0.16;72.36;97699.78;1844629;77;25787;-81
2021/11/07 02:54:43;;;;;;;45.05;19.95;;;;;;;0.17;72.46;97696.16;1844546;77;25718;-81
2021/11/07 02:57:14;;;;;;;43.15;19.98;;;;;;;0.14;72.51;97691.12;1844505;77;27362;-82
2021/11/07 02:59:41;;;;;;;45.73;19.90;;;;;;;0.15;72.56;97699.43;1844063;77;25694;-81
2021/11/07 03:02:10;;;;;;;49.05;21.17;;;;;;;0.15;72.63;97696.78;1844009;77;25801;-81
2021/11/07 03:04:38;;;;;;;57.53;23.57;;;;;;;0.16;72.64;97692.30;1843953;77;25724;-82
2021/11/07 03:07:06;;;;;;;54.88;23.73;;;;;;;0.18;72.62;97695.18;1811569;77;25767;-82
2021/11/07 03:09:37;;;;;;;52.48;22.22;;;;;;;0.21;72.56;97698.05;1811586;77;27354;-82
2021/11/07 03:12:08;;;;;;;42.30;19.98;;;;;;;0.23;72.52;97696.94;1831525;77;25921;-81
2021/11/07 03:14:40;;;;;;;35.95;17.90;;;;;;;0.25;72.57;97694.95;1844314;77;25693;-82
2021/11/07 03:17:09;;;;;;;32.20;16.10;;;;;;;0.26;72.49;97701.11;1821117;77;26590;-81
2021/11/07 03:19:36;;;;;;;27.22;14.70;;;;;;;0.26;72.55;97708.58;1830441;77;25727;-82
2021/11/07 03:22:13;;;;;;;30.17;14.70;;;;;;;0.28;72.51;97706.63;1841003;77;27648;-81
2021/11/07 03:24:41;;;;;;;34.20;14.93;;;;;;;0.29;72.48;97693.70;1840876;77;25650;-81
2021/11/07 03:27:19;;;;;;;33.35;14.60;;;;;;;0.31;72.45;97689.59;1807647;77;25735;-82
2021/11/07 03:29:46;;;;;;;27.70;13.32;;;;;;;0.31;72.45;97678.48;1828483;76;26036;-82
2021/11/07 03:32:22;;;;;;;34.43;14.03;;;;;;;0.29;72.47;97674.28;1840975;77;25701;-81
2021/11/07 03:34:58;;;;;;;26.48;13.60;;;;;;;0.28;72.48;97667.30;1840658;77;27371;-82
2021/11/07 03:37:27;;;;;;;24.82;13.40;;;;;;;0.28;72.45;97666.80;1840657;77;25642;-82
2021/11/07 03:39:58;;;;;;;29.63;14.60;;;;;;;0.28;72.50;97660.16;1840887;77;25774;-82
2021/11/07 03:42:26;;;;;;;29.35;14.07;;;;;;;0.29;72.49;97661.00;1840804;77;35284;-82
2021/11/07 03:44:53;;;;;;;30.35;13.55;;;;;;;0.30;72.50;97667.51;1840860;77;25908;-82
2021/11/07 03:47:21;;;;;;;30.35;14.15;;;;;;;0.30;72.53;97667.51;1840772;77;27270;-83
2021/11/07 03:49:48;;;;;;;33.90;15.20;;;;;;;0.29;72.49;97659.19;1840867;77;25818;-83
2021/11/07 03:52:15;;;;;;;38.35;15.90;;;;;;;0.29;72.46;97663.17;1840895;77;25884;-82
2021/11/07 03:54:43;;;;;;;32.80;14.83;;;;;;;0.28;72.39;97654.86;1827627;77;25845;-82
2021/11/07 03:57:11;;;;;;;36.75;16.15;;;;;;;0.26;72.39;97651.98;1821632;77;25743;-83
2021/11/07 03:59:40;;;;;;;32.20;16.05;;;;;;;0.24;72.42;97657.43;1840307;77;28453;-82
2021/11/07 04:02:08;;;;;;;39.13;16.37;;;;;;;0.25;72.44;97647.66;1840786;77;25986;-83
2021/11/07 04:04:35;;;;;;;37.70;15.83;;;;;;;0.24;72.47;97640.17;1827518;77;25683;-82
2021/11/07 04:07:02;;;;;;;31.23;15.23;;;;;;;0.17;72.45;97635.59;1840640;77;25745;-82
2021/11/07 04:09:29;;;;;;;27.62;14.58;;;;;;;0.11;72.53;97637.48;1840717;77;25715;-82
2021/11/07 04:11:56;;;;;;;32.63;14.78;;;;;;;0.12;72.67;97642.62;1840540;77;27323;-82
2021/11/07 04:14:22;;;;;;;24.82;14.70;;;;;;;0.14;72.64;97638.52;1840113;77;25658;-82
2021/11/07 04:16:49;;;;;;;28.30;15.13;;;;;;;0.13;72.68;97628.38;1840918;77;25715;-83
2021/11/07 04:19:16;;;;;;;30.62;16.45;;;;;;;0.13;72.70;97612.45;1840265;77;26534;-82
2021/11/07 04:21:46;;;;;;;29.45;15.15;;;;;;;0.15;72.61;97613.64;1843293;77;25229;-82
2021/11/07 04:24:11;;;;;;;32.50;14.55;;;;;;;0.10;72.64;97614.09;1843491;77;27567;-83
2021/11/07 04:26:37;;;;;;;24.98;13.75;;;;;;;0.07;72.69;97611.70;1843832;77;26518;-82
2021/11/07 04:29:04;;;;;;;23.38;13.13;;;;;;;0.07;72.75;97609.05;1844111;77;25719;-82
2021/11/07 04:31:31;;;;;;;31.35;17.27;;;;;;;0.07;72.77;97599.77;1843849;77;25764;-82
2021/11/07 04:33:58;;;;;;;40.65;18.82;;;;;;;0.08;72.71;97601.44;1844070;77;25715;-81
2021/11/07 04:36:25;;;;;;;33.20;16.80;;;;;;;0.08;72.69;97600.11;1843637;77;27340;-82
2021/11/07 04:38:52;;;;;;;29.90;15.35;;;;;;;0.11;72.73;97606.97;1844062;77;26360;-82
2021/11/07 04:41:19;;;;;;;26.70;14.33;;;;;;;0.07;72.75;97589.15;1844280;77;25250;-82
2021/11/07 04:43:47;;;;;;;26.62;12.73;;;;;;;0.08;72.76;97587.33;1844113;77;26575;-82
2021/11/07 04:46:17;;;;;;;25.88;13.35;;;;;;;0.08;72.78;97584.19;1836156;77;25779;-82
2021/11/07 04:48:47;;;;;;;25.70;13.32;;;;;;;0.10;72.78;97590.69;1816199;77;28204;-81
2021/11/07 04:51:15;;;;;;;21.55;11.78;;;;;;;0.11;72.79;97586.56;1843537;77;26007;-82
2021/11/07 04:53:42;;;;;;;21.37;11.70;;;;;;;0.11;72.79;97585.24;1843833;77;25718;-82
2021/11/07 04:56:08;;;;;;;20.00;10.43;;;;;;;0.13;72.89;97589.89;1823364;77;26563;-82
2021/11/07 04:58:35;;;;;;;21.27;11.20;;;;;;;0.14;72.89;97582.28;1821194;77;25752;-82
2021/11/07 05:01:04;;;;;;;19.35;11.28;;;;;;;0.16;72.99;97580.33;1844112;76;27481;-82
2021/11/07 05:03:31;;;;;;;18.50;10.40;;;;;;;0.21;73.03;97570.62;1811120;77;26074;-81
2021/11/07 05:05:59;;;;;;;17.98;10.45;;;;;;;0.19;73.15;97569.92;1832528;77;25787;-82
2021/11/07 05:08:25;;;;;;;18.45;10.18;;;;;;;0.15;73.20;97572.01;1802837;77;26500;-82
2021/11/07 05:10:52;;;;;;;18.23;10.03;;;;;;;0.14;73.33;97558.88;1817755;77;25790;-81
2021/11/07 05:13:19;;;;;;;18.77;10.20;;;;;;;0.13;73.42;97554.55;1844151;77;27598;-81
2021/11/07 05:15:45;;;;;;;23.02;11.88;;;;;;;0.09;73.55;97548.70;1844037;77;25685;-82
2021/11/07 05:18:12;;;;;;;26.65;13.45;;;;;;;0.08;73.69;97545.70;1824625;77;25969;-82
2021/11/07 05:20:38;;;;;;;30.17;14.65;;;;;;;0.08;73.79;97544.38;1807825;77;25788;-81
2021/11/07 05:23:05;;;;;;;28.05;15.88;;;;;;;0.15;73.81;97543.30;1831012;77;25847;-81
2021/11/07 05:25:32;;;;;;;30.15;16.48;;;;;;;0.20;73.77;97537.92;1840347;77;27449;-82
2021/11/07 05:27:59;;;;;;;23.50;14.25;;;;;;;0.25;73.79;97539.64;1840396;77;25909;-81
2021/11/07 05:30:25;;;;;;;23.50;12.33;;;;;;;0.29;73.77;97538.38;1840835;77;25727;-82
2021/11/07 05:32:52;;;;;;;23.30;12.00;;;;;;;0.33;73.89;97526.50;1839166;77;26461;-82
2021/11/07 05:35:19;;;;;;;21.30;11.40;;;;;;;0.38;73.99;97526.53;1809687;77;25709;-82
2021/11/07 05:37:48;;;;;;;18.67;10.93;;;;;;;0.39;74.03;97533.03;1841017;77;28226;-82
2021/11/07 05:40:17;;;;;;;19.73;10.85;;;;;;;0.44;74.11;97532.61;1840771;77;25748;-82
2021/11/07 05:42:46;;;;;;;19.95;11.18;;;;;;;0.45;74.05;97531.63;1841014;77;25378;-82
2021/11/07 05:45:13;;;;;;;25.75;12.95;;;;;;;0.49;74.08;97523.20;1839719;77;26714;-82
2021/11/07 05:47:39;;;;;;;28.25;15.18;;;;;;;0.56;74.09;97524.31;1763184;79;26423;-81
2021/11/07 05:50:07;;;;;;;26.37;15.03;;;;;;;0.63;74.06;97524.06;1801462;79;27430;-81
2021/11/07 05:52:34;;;;;;;23.60;12.43;;;;;;;0.68;74.04;97520.98;1801165;79;26245;-81
2021/11/07 05:55:01;;;;;;;24.70;12.35;;;;;;;0.72;74.04;97514.40;1801562;79;25785;-81
2021/11/07 05:57:28;;;;;;;60.90;24.57;;;;;;;0.75;74.14;97499.47;1797186;79;26282;-81
2021/11/07 05:59:54;;;;;;;83.82;32.75;;;;;;;0.78;74.14;97500.50;1783750;79;25816;-82
2021/11/07 06:02:21;;;;;;;70.12;29.95;;;;;;;0.81;74.12;97488.26;1801297;79;27629;-82
2021/11/07 06:04:48;;;;;;;64.12;27.25;;;;;;;0.85;74.19;97495.42;1801309;79;25706;-81
2021/11/07 06:07:16;;;;;;;45.98;22.20;;;;;;;0.89;74.21;97496.31;1801104;79;25784;-81
2021/11/07 06:09:43;;;;;;;47.33;21.82;;;;;;;0.93;74.26;97480.42;1800113;79;25935;-81
2021/11/07 06:12:10;;;;;;;44.83;22.37;;;;;;;0.98;74.28;97483.45;1801424;79;25260;-81
2021/11/07 06:14:38;;;;;;;51.10;26.15;;;;;;;0.99;74.43;97473.16;1800014;79;27382;-81
2021/11/07 06:17:06;;;;;;;53.08;25.95;;;;;;;1.02;74.49;97475.53;1801241;79;25740;-82
2021/11/07 06:19:33;;;;;;;52.05;26.68;;;;;;;1.08;74.50;97468.30;1795808;78;25778;-81
2021/11/07 06:22:00;;;;;;;71.82;35.90;;;;;;;1.14;74.49;97466.00;1797193;79;26541;-82
2021/11/07 06:24:28;;;;;;;101.53;49.95;;;;;;;1.18;74.58;97456.75;1795470;78;25756;-82
2021/11/07 06:26:58;;;;;;;85.70;42.15;;;;;;;1.20;74.61;97454.78;1795838;79;27399;-82
2021/11/07 06:29:26;;;;;;;61.13;31.68;;;;;;;1.25;74.63;97452.48;1795382;78;25943;-82
2021/11/07 06:31:56;;;;;;;59.55;31.40;;;;;;;1.28;74.64;97449.53;1773834;79;26074;-82
2021/11/07 06:34:25;;;;;;;58.48;29.00;;;;;;;1.33;74.64;97448.56;1795023;78;26340;-81
2021/11/07 06:36:53;;;;;;;53.20;27.70;;;;;;;1.38;74.66;97448.95;1795768;79;25745;-82
2021/11/07 06:39:22;;;;;;;52.53;28.73;;;;;;;1.42;74.65;97432.55;1795271;78;27431;-82
2021/11/07 06:41:49;;;;;;;80.95;42.67;;;;;;;1.44;74.55;97431.90;1795409;79;25881;-82
2021/11/07 06:44:16;;;;;;;78.78;41.10;;;;;;;1.48;74.57;97415.11;1780382;78;25705;-82
2021/11/07 06:46:43;;;;;;;21.68;12.85;;;;;;;1.50;74.67;97422.95;1790184;78;26455;-83
2021/11/07 06:49:13;;;;;;;16.20;9.28;;;;;;;1.57;74.67;97420.83;1795947;79;25653;-83
2021/11/07 06:51:43;;;;;;;13.80;8.00;;;;;;;1.94;74.62;97413.09;1795909;79;28100;-83
2021/11/07 06:54:11;;;;;;;28.10;16.40;;;;;;;2.21;74.20;97396.11;1795593;79;26660;-84
2021/11/07 06:56:38;;;;;;;19.40;9.08;;;;;;;2.48;74.00;97413.21;1795985;78;25777;-84
2021/11/07 06:59:06;;;;;;;13.90;8.23;;;;;;;2.63;73.62;97421.44;1792210;78;25759;-84
2021/11/07 07:01:36;;;;;;;12.13;6.70;;;;;;;2.89;73.37;97406.19;1795797;78;25802;-84
2021/11/07 07:04:04;;;;;;;13.53;7.90;;;;;;;3.04;73.21;97386.36;1795982;79;27394;-85
2021/11/07 07:06:31;;;;;;;12.93;7.65;;;;;;;3.13;73.05;97386.23;1795851;79;25949;-84
2021/11/07 07:09:03;;;;;;;10.55;6.25;;;;;;;3.27;72.66;97382.05;1795748;79;25733;-85
2021/11/07 07:11:33;;;;;;;11.08;6.75;;;;;;;3.46;72.36;97391.06;1795144;79;26469;-85
2021/11/07 07:29:10;;;;;;;25.75;13.95;;;;;;;4.48;71.08;97402.86;1801581;77;27483;-86
2021/11/07 07:34:09;;;;;;;23.98;13.60;;;;;;;4.75;70.97;97389.53;1792327;78;25775;-86
2021/11/07 07:36:35;;;;;;;31.90;18.02;;;;;;;4.84;70.82;97384.46;1801556;77;25926;-85
2021/11/07 07:39:04;;;;;;;27.15;14.75;;;;;;;4.95;70.58;97384.09;1801288;79;25680;-86
2021/11/07 07:41:32;;;;;;;24.02;12.53;;;;;;;5.05;70.71;97387.37;1801506;78;28184;-85
2021/11/07 07:44:03;;;;;;;19.67;11.38;;;;;;;5.23;70.63;97380.38;1801398;78;26336;-85
2021/11/07 07:46:27;;;;;;;16.40;10.58;;;;;;;5.37;70.27;97368.39;1800897;77;26435;-85
2021/11/07 07:48:54;;;;;;;17.82;9.68;;;;;;;5.48;70.12;97346.22;1801769;78;26259;-86
2021/11/07 07:51:24;;;;;;;14.13;8.93;;;;;;;5.60;69.65;97356.81;1801564;77;25763;-85
2021/11/07 07:53:49;;;;;;;13.90;8.88;;;;;;;5.78;69.34;97358.67;1801422;77;27626;-85
2021/11/07 07:56:16;;;;;;;17.65;9.33;;;;;;;5.99;69.07;97344.08;1801498;77;25482;-86
2021/11/07 07:58:42;;;;;;;11.35;7.78;;;;;;;6.18;68.90;97339.16;1788336;79;25462;-86
2021/11/07 08:01:10;;;;;;;19.77;10.70;;;;;;;6.37;68.60;97346.15;1792172;77;25665;-86
2021/11/07 08:03:37;;;;;;;35.83;18.75;;;;;;;6.52;68.42;97345.30;1780656;78;26271;-86
2021/11/07 08:06:05;;;;;;;28.30;12.50;;;;;;;6.70;67.83;97346.55;1801472;78;27632;-86
2021/11/07 08:08:31;;;;;;;21.68;11.22;;;;;;;6.92;67.54;97353.30;1801488;78;25698;-86
2021/11/07 08:10:58;;;;;;;17.73;9.10;;;;;;;7.14;67.28;97345.58;1801631;78;25795;-87
2021/11/07 08:13:25;;;;;;;19.35;9.20;;;;;;;7.34;66.82;97336.39;1801442;78;26270;-87
2021/11/07 08:15:51;;;;;;;16.80;8.40;;;;;;;7.52;66.23;97322.80;1801786;77;25658;-85
2021/11/07 08:18:18;;;;;;;17.57;10.05;;;;;;;7.72;65.67;97307.37;1801549;77;27251;-85
2021/11/07 08:20:46;;;;;;;19.90;10.82;;;;;;;7.92;65.60;97301.09;1801493;78;25293;-86
2021/11/07 08:23:13;;;;;;;23.35;11.93;;;;;;;8.15;65.45;97297.30;1801278;78;25672;-86
2021/11/07 08:25:40;;;;;;;28.15;14.07;;;;;;;8.40;65.24;97285.55;1791742;79;25792;-86
2021/11/07 08:28:06;;;;;;;26.02;12.93;;;;;;;8.69;64.76;97286.61;1769830;79;25739;-86
2021/11/07 08:30:41;;;;;;;28.27;15.53;;;;;;;8.95;64.50;97281.27;1769535;79;27443;-86
2021/11/07 08:33:09;;;;;;;24.70;12.30;;;;;;;9.02;63.81;97283.47;1788138;78;25925;-87
2021/11/07 08:35:40;;;;;;;19.57;10.23;;;;;;;9.19;63.78;97287.94;1788051;78;25748;-86
2021/11/07 08:38:11;;;;;;;17.20;8.98;;;;;;;9.47;63.33;97295.84;1789982;78;25878;-86
2021/11/07 08:40:46;;;;;;;14.20;8.30;;;;;;;9.77;62.64;97292.22;1801158;78;26558;-84
2021/11/07 09:05:11;;;;;;;4.97;3.62;;;;;;;12.15;57.10;97245.76;1801156;77;25859;-86
2021/11/07 09:07:59;;;;;;;7.22;4.33;;;;;;;12.49;56.74;97251.08;1797272;78;25307;-86
2021/11/07 09:09:57;;;;;;;7.40;4.22;;;;;;;12.78;55.18;97250.83;1796665;78;27577;-87
2021/11/07 09:12:18;;;;;;;5.95;4.37;;;;;;;12.98;55.38;97231.05;1800222;79;25743;-87
2021/11/07 09:14:44;;;;;;;3.85;3.15;;;;;;;13.24;54.59;97240.17;1801614;78;25687;-86
2021/11/07 09:17:14;;;;;;;5.00;2.90;;;;;;;13.47;53.47;97226.36;1788503;79;25759;-87
2021/11/07 09:19:43;;;;;;;2.52;1.87;;;;;;;13.66;53.40;97215.69;1793734;78;26341;-86
2021/11/07 09:22:24;;;;;;;2.72;1.95;;;;;;;13.86;52.50;97216.19;1789801;78;27327;-86
2021/11/07 09:24:55;;;;;;;3.02;2.10;;;;;;;14.02;51.97;97222.23;1791828;77;25751;-86
2021/11/07 09:27:30;;;;;;;4.75;2.95;;;;;;;14.27;51.97;97226.56;1782413;78;25263;-86
2021/11/07 09:30:13;;;;;;;3.75;2.45;;;;;;;14.45;51.57;97212.88;1777916;77;25704;-87
2021/11/07 09:35:38;;;;;;;9.35;3.80;;;;;;;14.25;48.77;97217.30;1795772;77;28259;-87
2021/11/07 09:38:09;;;;;;;10.60;4.33;;;;;;;14.22;48.76;97215.61;1788065;78;25767;-87
2021/11/07 09:40:37;;;;;;;5.50;2.58;;;;;;;14.35;48.53;97192.27;1801004;78;25739;-86
2021/11/07 09:48:24;;;;;;;2.30;1.85;;;;;;;15.10;47.84;97189.36;1795786;78;27434;-87
2021/11/07 09:50:46;;;;;;;5.85;4.22;;;;;;;15.25;47.24;97188.27;1793889;78;25892;-87
2021/11/07 09:53:15;;;;;;;5.30;3.27;;;;;;;15.32;46.68;97193.03;1795770;78;25296;-87
2021/11/07 09:55:44;;;;;;;2.60;2.10;;;;;;;15.32;46.48;97190.31;1795802;78;25734;-87
2021/11/07 09:58:10;;;;;;;4.33;2.60;;;;;;;15.39;46.37;97184.70;1795826;78;25760;-86
2021/11/07 10:00:42;;;;;;;4.50;2.77;;;;;;;15.69;45.85;97177.59;1795786;78;27402;-86
2021/11/07 10:03:13;;;;;;;2.83;1.80;;;;;;;15.92;45.38;97188.28;1795696;78;25778;-88
2021/11/07 10:05:43;;;;;;;2.27;1.67;;;;;;;16.36;44.60;97174.69;1795693;78;25639;-88
2021/11/07 10:08:11;;;;;;;2.15;1.87;;;;;;;16.67;44.05;97161.73;1795796;78;26705;-87
2021/11/07 10:10:54;;;;;;;4.58;2.00;;;;;;;16.74;44.12;97162.91;1787350;78;25657;-86
2021/11/07 10:13:22;;;;;;;2.90;2.00;;;;;;;16.80;43.73;97170.88;1784407;78;27390;-87
2021/11/07 10:15:50;;;;;;;3.40;1.67;;;;;;;16.65;42.96;97153.02;1773344;78;25865;-87
2021/11/07 10:18:55;;;;;;;5.05;1.87;;;;;;;16.68;43.09;97153.84;1795587;78;26298;-87
2021/11/07 10:21:22;;;;;;;1.60;1.50;;;;;;;16.84;42.77;97151.56;1793118;78;25769;-87
2021/11/07 10:24:04;;;;;;;4.50;1.75;;;;;;;16.70;42.32;97146.23;1795010;78;25282;-88
2021/11/07 10:26:40;;;;;;;4.47;1.82;;;;;;;16.39;41.48;97147.78;1795304;78;27420;-86
2021/11/07 10:29:09;;;;;;;3.85;1.90;;;;;;;15.97;41.06;97143.95;1795413;78;25665;-87
2021/11/07 10:54:00;;;;;;;4.40;2.33;;;;;;;16.04;42.55;97103.23;1795371;78;27687;-86
2021/11/07 10:56:27;;;;;;;4.12;2.35;;;;;;;16.54;42.34;97094.01;1792743;78;25743;-87
2021/11/07 10:58:53;;;;;;;7.70;2.50;;;;;;;16.75;41.88;97093.16;1795726;78;25694;-88
2021/11/07 11:01:26;;;;;;;5.42;2.40;;;;;;;16.83;41.63;97081.77;1795798;78;25761;-87
2021/11/07 11:03:59;;;;;;;;;;;;;;;16.98;41.63;97086.55;1798457;78;25793;-88
2021/11/07 11:06:23;;;;;;;8.18;3.37;;;;;;;17.19;40.41;97077.98;1795145;78;28205;-87
2021/11/07 11:09:01;;;;;;;8.75;4.50;;;;;;;17.34;41.22;97067.19;1795664;78;26104;-88
2021/11/07 11:11:37;;;;;;;6.15;2.50;;;;;;;17.50;41.15;97079.03;1795308;78;25677;-87
2021/11/07 11:14:22;;;;;;;5.70;3.45;;;;;;;17.61;40.70;97075.27;1783321;78;25769;-87
2021/11/07 11:28:16;;;;;;;7.05;3.67;;;;;;;17.00;39.31;97075.38;1848455;75;26060;-88
2021/11/07 11:31:11;;;;;;;4.97;2.27;;;;;;;16.79;39.83;97064.28;1842818;76;25706;-88
2021/11/07 11:33:44;;;;;;;6.65;3.25;;;;;;;16.71;39.63;97055.22;1842130;76;27483;-86
2021/11/07 11:36:19;;;;;;;5.25;2.30;;;;;;;16.67;39.57;97039.64;1843554;77;25754;-87
2021/11/07 11:38:43;;;;;;;2.75;2.33;;;;;;;16.59;39.64;97035.45;1842018;76;25749;-85
2021/11/07 11:41:15;;;;;;;4.08;2.90;;;;;;;16.61;40.01;97037.39;1843968;76;25785;-87
2021/11/07 11:43:44;;;;;;;4.80;2.45;;;;;;;16.63;39.96;97027.63;1841356;76;25761;-86
2021/11/07 11:46:22;;;;;;;4.95;2.83;;;;;;;16.68;39.66;97010.77;1812315;77;28170;-85
2021/11/07 11:49:20;;;;;;;5.67;3.00;;;;;;;16.61;39.94;97007.41;1833478;76;25838;-85
2021/11/07 11:57:42;;;;;;;4.70;3.25;;;;;;;16.13;39.22;97009.67;1844423;76;26264;-89
2021/11/07 12:00:36;;;;;;;12.70;5.60;;;;;;;16.00;39.53;97000.00;1823588;77;28111;-86
2021/11/07 12:03:10;;;;;;;3.33;2.60;;;;;;;15.91;39.88;97006.98;1829235;77;25823;-86
2021/11/07 12:05:45;;;;;;;6.58;3.52;;;;;;;15.83;39.93;96996.53;1796246;77;25729;-86
2021/11/07 12:08:24;;;;;;;7.67;4.37;;;;;;;15.91;40.42;96987.94;1833440;76;25751;-86
2021/11/07 12:10:58;;;;;;;4.97;3.30;;;;;;;15.96;40.34;96985.25;1842379;76;25599;-85
2021/11/07 12:13:50;;;;;;;8.85;4.20;;;;;;;15.98;40.30;96993.98;1830779;77;27528;-90
2021/11/07 12:16:25;;;;;;;5.37;3.87;;;;;;;16.10;40.52;96996.02;1842949;77;25674;-87
2021/11/07 12:19:02;;;;;;;4.55;2.92;;;;;;;16.23;40.55;96987.98;1810635;76;25876;-87
2021/11/07 12:21:56;;;;;;;4.58;2.77;;;;;;;16.36;40.57;96978.58;1827595;76;25725;-86
2021/11/07 12:24:49;;;;;;;5.22;3.70;;;;;;;16.34;39.96;96978.01;1844864;76;26358;-87
2021/11/07 12:27:28;;;;;;;4.65;3.05;;;;;;;16.32;40.22;96966.55;1840203;77;27447;-86
2021/11/07 12:30:23;;;;;;;6.17;3.10;;;;;;;16.19;39.69;96970.51;1844541;77;25886;-86
2021/11/07 12:32:50;;;;;;;6.03;3.20;;;;;;;15.93;40.35;96974.08;1843443;76;26126;-86
2021/11/07 12:35:36;;;;;;;6.08;3.08;;;;;;;16.09;40.21;96976.68;1821283;77;26035;-87
2021/11/07 12:41:02;;;;;;;6.03;3.55;;;;;;;16.13;40.27;96969.66;1819956;76;27559;-87
2021/11/07 12:43:40;;;;;;;3.95;2.95;;;;;;;16.25;40.39;96969.49;1828931;77;26249;-86
2021/11/07 12:46:33;;;;;;;4.15;2.95;;;;;;;16.35;40.36;96968.76;1844130;77;25691;-86
2021/11/07 12:49:15;;;;;;;4.95;2.80;;;;;;;16.58;40.54;96966.52;1843498;77;25678;-87
2021/11/07 12:51:52;;;;;;;3.90;3.42;;;;;;;16.65;40.09;96960.90;1843045;76;26203;-86
2021/11/07 12:54:30;;;;;;;9.00;3.20;;;;;;;16.43;39.70;96960.11;1824013;76;27386;-86
2021/11/07 12:57:15;;;;;;;6.15;3.02;;;;;;;16.00;39.97;96950.18;1814562;76;25783;-86
2021/11/07 12:59:52;;;;;;;4.62;2.92;;;;;;;15.66;40.31;96953.09;1833716;76;25690;-85
2021/11/07 13:02:32;;;;;;;3.55;3.05;;;;;;;15.30;40.37;96946.36;1844139;76;25738;-85
2021/11/07 13:05:10;;;;;;;4.08;3.25;;;;;;;14.93;40.50;96938.50;1843928;76;25783;-85
2021/11/07 13:07:53;;;;;;;8.05;3.50;;;;;;;14.57;41.05;96938.51;1843480;77;27401;-85
2021/11/07 13:10:48;;;;;;;6.30;3.58;;;;;;;14.30;41.48;96935.59;1843077;77;25967;-86
2021/11/07 13:13:17;;;;;;;4.58;3.30;;;;;;;14.06;42.24;96930.84;1828717;77;25682;-88
2021/11/07 13:15:52;;;;;;;4.03;2.57;;;;;;;13.94;42.46;96925.48;1796157;77;26364;-88
2021/11/07 13:21:21;;;;;;;4.22;2.98;;;;;;;13.70;42.73;96917.98;1843673;77;28247;-87
2021/11/07 13:32:13;;;;;;;4.90;2.87;;;;;;;13.04;43.42;96899.55;1849993;76;26054;-86
2021/11/07 13:34:30;;;;;;;8.78;3.40;;;;;;;12.96;43.72;96899.39;1815438;77;27399;-86
2021/11/07 13:36:59;;;;;;;7.12;3.77;;;;;;;12.79;44.02;96901.73;1849396;77;25703;-85
2021/11/07 13:39:31;;;;;;;5.53;4.00;;;;;;;12.59;44.15;96901.55;1849779;76;25761;-85